sensor_id;sensor_type;location;lat;lon;timestamp;P1;durP1;ratioP1;P2;durP2;ratioP2
37237;SDS011;23129;49.662;8.448;2022-11-15T00:02:41;5.13;;;3.65;;
37237;SDS011;23129;49.662;8.448;2022-11-15T00:05:28;11.13;;;4.63;;
37237;SDS011;23129;49.662;8.448;2022-11-15T00:08:16;8.68;;;4.68;;
37237;SDS011;23129;49.662;8.448;2022-11-15T00:11:04;5.75;;;3.75;;
37237;SDS011;23129;49.662;8.448;2022-11-15T00:13:51;8.52;;;3.83;;
37237;SDS011;23129;49.662;8.448;2022-11-15T00:16:41;5.80;;;4.05;;
37237;SDS011;23129;49.662;8.448;2022-11-15T00:19:28;8.55;;;3.33;;
37237;SDS011;23129;49.662;8.448;2022-11-15T00:22:15;5.07;;;3.53;;
37237;SDS011;23129;49.662;8.448;2022-11-15T00:25:04;5.25;;;3.80;;
37237;SDS011;23129;49.662;8.448;2022-11-15T00:27:54;11.52;;;3.80;;
37237;SDS011;23129;49.662;8.448;2022-11-15T00:30:42;13.48;;;4.78;;
37237;SDS011;23129;49.662;8.448;2022-11-15T00:33:30;7.05;;;3.92;;
37237;SDS011;23129;49.662;8.448;2022-11-15T00:36:18;7.53;;;3.88;;
37237;SDS011;23129;49.662;8.448;2022-11-15T00:39:05;8.23;;;4.43;;
37237;SDS011;23129;49.662;8.448;2022-11-15T00:41:53;7.78;;;4.32;;
37237;SDS011;23129;49.662;8.448;2022-11-15T00:44:40;7.13;;;4.03;;
37237;SDS011;23129;49.662;8.448;2022-11-15T00:47:27;7.78;;;4.07;;
37237;SDS011;23129;49.662;8.448;2022-11-15T00:50:14;6.63;;;3.85;;
37237;SDS011;23129;49.662;8.448;2022-11-15T00:53:01;7.63;;;3.92;;
37237;SDS011;23129;49.662;8.448;2022-11-15T00:55:48;5.88;;;3.92;;
37237;SDS011;23129;49.662;8.448;2022-11-15T00:58:36;9.05;;;4.45;;
37237;SDS011;23129;49.662;8.448;2022-11-15T01:01:23;8.95;;;4.53;;
37237;SDS011;23129;49.662;8.448;2022-11-15T01:04:10;5.70;;;4.40;;
37237;SDS011;23129;49.662;8.448;2022-11-15T01:06:57;6.95;;;4.55;;
37237;SDS011;23129;49.662;8.448;2022-11-15T01:09:44;14.13;;;3.78;;
37237;SDS011;23129;49.662;8.448;2022-11-15T01:12:31;7.82;;;3.67;;
37237;SDS011;23129;49.662;8.448;2022-11-15T01:15:20;11.15;;;3.92;;
37237;SDS011;23129;49.662;8.448;2022-11-15T01:18:07;3.47;;;3.17;;
37237;SDS011;23129;49.662;8.448;2022-11-15T01:20:54;4.90;;;3.50;;
37237;SDS011;23129;49.662;8.448;2022-11-15T01:23:41;7.25;;;3.65;;
37237;SDS011;23129;49.662;8.448;2022-11-15T01:26:29;10.60;;;4.32;;
37237;SDS011;23129;49.662;8.448;2022-11-15T01:29:16;8.85;;;4.65;;
37237;SDS011;23129;49.662;8.448;2022-11-15T01:32:05;6.95;;;3.53;;
37237;SDS011;23129;49.662;8.448;2022-11-15T01:34:52;7.63;;;3.60;;
37237;SDS011;23129;49.662;8.448;2022-11-15T01:37:39;9.18;;;4.25;;
37237;SDS011;23129;49.662;8.448;2022-11-15T01:40:26;6.82;;;3.67;;
37237;SDS011;23129;49.662;8.448;2022-11-15T01:43:20;5.72;;;3.53;;
37237;SDS011;23129;49.662;8.448;2022-11-15T01:46:15;5.43;;;3.53;;
37237;SDS011;23129;49.662;8.448;2022-11-15T01:49:15;6.15;;;3.53;;
37237;SDS011;23129;49.662;8.448;2022-11-15T01:52:06;5.30;;;3.50;;
37237;SDS011;23129;49.662;8.448;2022-11-15T01:54:59;5.20;;;3.50;;
37237;SDS011;23129;49.662;8.448;2022-11-15T01:57:54;5.22;;;3.63;;
37237;SDS011;23129;49.662;8.448;2022-11-15T02:00:45;6.22;;;3.53;;
37237;SDS011;23129;49.662;8.448;2022-11-15T02:03:34;8.25;;;3.55;;
37237;SDS011;23129;49.662;8.448;2022-11-15T02:06:29;9.18;;;3.40;;
37237;SDS011;23129;49.662;8.448;2022-11-15T02:09:16;7.32;;;2.95;;
37237;SDS011;23129;49.662;8.448;2022-11-15T02:12:03;10.07;;;2.85;;
37237;SDS011;23129;49.662;8.448;2022-11-15T02:14:53;8.05;;;3.35;;
37237;SDS011;23129;49.662;8.448;2022-11-15T02:17:55;4.38;;;2.75;;
37237;SDS011;23129;49.662;8.448;2022-11-15T02:20:58;5.28;;;3.03;;
37237;SDS011;23129;49.662;8.448;2022-11-15T02:24:06;4.50;;;3.08;;
37237;SDS011;23129;49.662;8.448;2022-11-15T02:30:54;5.93;;;3.63;;
37237;SDS011;23129;49.662;8.448;2022-11-15T02:33:52;7.88;;;3.20;;
37237;SDS011;23129;49.662;8.448;2022-11-15T02:36:48;3.65;;;3.25;;
37237;SDS011;23129;49.662;8.448;2022-11-15T02:39:49;11.20;;;3.72;;
37237;SDS011;23129;49.662;8.448;2022-11-15T02:42:45;5.05;;;3.47;;
37237;SDS011;23129;49.662;8.448;2022-11-15T02:45:58;5.53;;;3.40;;
37237;SDS011;23129;49.662;8.448;2022-11-15T02:48:52;4.00;;;3.25;;
37237;SDS011;23129;49.662;8.448;2022-11-15T02:51:39;5.50;;;3.88;;
37237;SDS011;23129;49.662;8.448;2022-11-15T02:54:29;12.50;;;3.42;;
37237;SDS011;23129;49.662;8.448;2022-11-15T02:57:18;5.63;;;3.15;;
37237;SDS011;23129;49.662;8.448;2022-11-15T03:00:15;6.18;;;3.33;;
37237;SDS011;23129;49.662;8.448;2022-11-15T03:03:13;7.75;;;3.60;;
37237;SDS011;23129;49.662;8.448;2022-11-15T03:06:24;7.82;;;3.47;;
37237;SDS011;23129;49.662;8.448;2022-11-15T03:09:24;5.00;;;3.83;;
37237;SDS011;23129;49.662;8.448;2022-11-15T03:12:21;20.52;;;3.60;;
37237;SDS011;23129;49.662;8.448;2022-11-15T03:15:15;12.52;;;3.38;;
37237;SDS011;23129;49.662;8.448;2022-11-15T03:18:08;4.88;;;3.25;;
37237;SDS011;23129;49.662;8.448;2022-11-15T03:21:05;4.57;;;3.33;;
37237;SDS011;23129;49.662;8.448;2022-11-15T03:23:54;6.05;;;3.13;;
37237;SDS011;23129;49.662;8.448;2022-11-15T03:26:46;7.43;;;3.85;;
37237;SDS011;23129;49.662;8.448;2022-11-15T03:29:37;7.32;;;4.05;;
37237;SDS011;23129;49.662;8.448;2022-11-15T03:32:29;8.98;;;4.20;;
37237;SDS011;23129;49.662;8.448;2022-11-15T03:35:23;5.75;;;4.20;;
37237;SDS011;23129;49.662;8.448;2022-11-15T03:38:14;5.57;;;3.47;;
37237;SDS011;23129;49.662;8.448;2022-11-15T03:41:08;3.60;;;2.63;;
37237;SDS011;23129;49.662;8.448;2022-11-15T03:44:04;5.07;;;3.10;;
37237;SDS011;23129;49.662;8.448;2022-11-15T03:47:01;8.00;;;2.97;;
37237;SDS011;23129;49.662;8.448;2022-11-15T03:49:55;8.50;;;3.50;;
37237;SDS011;23129;49.662;8.448;2022-11-15T03:52:49;5.93;;;3.07;;
37237;SDS011;23129;49.662;8.448;2022-11-15T03:55:37;5.18;;;3.15;;
37237;SDS011;23129;49.662;8.448;2022-11-15T03:58:23;9.10;;;4.28;;
37237;SDS011;23129;49.662;8.448;2022-11-15T04:01:10;5.47;;;3.80;;
37237;SDS011;23129;49.662;8.448;2022-11-15T04:03:57;4.72;;;2.90;;
37237;SDS011;23129;49.662;8.448;2022-11-15T04:06:44;5.40;;;3.25;;
37237;SDS011;23129;49.662;8.448;2022-11-15T04:09:32;7.20;;;3.67;;
37237;SDS011;23129;49.662;8.448;2022-11-15T04:12:40;10.27;;;3.78;;
37237;SDS011;23129;49.662;8.448;2022-11-15T04:15:31;8.27;;;3.78;;
37237;SDS011;23129;49.662;8.448;2022-11-15T04:18:18;7.30;;;3.33;;
37237;SDS011;23129;49.662;8.448;2022-11-15T04:21:05;4.10;;;3.10;;
37237;SDS011;23129;49.662;8.448;2022-11-15T04:24:07;6.57;;;3.00;;
37237;SDS011;23129;49.662;8.448;2022-11-15T04:27:01;3.45;;;2.80;;
37237;SDS011;23129;49.662;8.448;2022-11-15T04:29:48;5.53;;;3.33;;
37237;SDS011;23129;49.662;8.448;2022-11-15T04:32:35;4.45;;;2.85;;
37237;SDS011;23129;49.662;8.448;2022-11-15T04:35:22;9.13;;;4.03;;
37237;SDS011;23129;49.662;8.448;2022-11-15T04:38:10;6.88;;;3.60;;
37237;SDS011;23129;49.662;8.448;2022-11-15T04:40:57;8.63;;;4.07;;
37237;SDS011;23129;49.662;8.448;2022-11-15T04:43:45;7.05;;;4.07;;
37237;SDS011;23129;49.662;8.448;2022-11-15T04:46:32;5.50;;;4.13;;
37237;SDS011;23129;49.662;8.448;2022-11-15T04:49:19;7.63;;;4.28;;
37237;SDS011;23129;49.662;8.448;2022-11-15T04:52:06;7.20;;;3.38;;
37237;SDS011;23129;49.662;8.448;2022-11-15T04:54:53;7.10;;;4.07;;
37237;SDS011;23129;49.662;8.448;2022-11-15T04:57:40;6.38;;;3.45;;
37237;SDS011;23129;49.662;8.448;2022-11-15T05:00:28;5.70;;;4.15;;
37237;SDS011;23129;49.662;8.448;2022-11-15T05:03:15;4.68;;;3.78;;
37237;SDS011;23129;49.662;8.448;2022-11-15T05:06:28;5.55;;;3.53;;
37237;SDS011;23129;49.662;8.448;2022-11-15T05:09:16;8.57;;;3.72;;
37237;SDS011;23129;49.662;8.448;2022-11-15T05:12:03;14.25;;;8.35;;
37237;SDS011;23129;49.662;8.448;2022-11-15T05:14:50;5.90;;;4.70;;
37237;SDS011;23129;49.662;8.448;2022-11-15T05:17:40;9.13;;;5.25;;
37237;SDS011;23129;49.662;8.448;2022-11-15T05:20:30;6.93;;;4.70;;
37237;SDS011;23129;49.662;8.448;2022-11-15T05:23:17;7.90;;;4.55;;
37237;SDS011;23129;49.662;8.448;2022-11-15T05:26:04;6.28;;;4.28;;
37237;SDS011;23129;49.662;8.448;2022-11-15T05:28:54;4.65;;;3.75;;
37237;SDS011;23129;49.662;8.448;2022-11-15T05:31:42;7.88;;;3.50;;
37237;SDS011;23129;49.662;8.448;2022-11-15T05:34:31;6.60;;;3.90;;
37237;SDS011;23129;49.662;8.448;2022-11-15T05:37:18;12.68;;;4.68;;
37237;SDS011;23129;49.662;8.448;2022-11-15T05:40:05;5.93;;;4.43;;
37237;SDS011;23129;49.662;8.448;2022-11-15T05:42:54;9.25;;;4.80;;
37237;SDS011;23129;49.662;8.448;2022-11-15T05:45:41;13.88;;;5.75;;
37237;SDS011;23129;49.662;8.448;2022-11-15T05:48:28;30.65;;;11.35;;
37237;SDS011;23129;49.662;8.448;2022-11-15T05:51:17;21.73;;;10.07;;
37237;SDS011;23129;49.662;8.448;2022-11-15T05:54:05;23.77;;;9.93;;
37237;SDS011;23129;49.662;8.448;2022-11-15T05:56:53;19.70;;;10.75;;
37237;SDS011;23129;49.662;8.448;2022-11-15T05:59:40;13.07;;;8.10;;
37237;SDS011;23129;49.662;8.448;2022-11-15T06:02:28;16.02;;;6.75;;
37237;SDS011;23129;49.662;8.448;2022-11-15T06:05:16;10.93;;;5.57;;
37237;SDS011;23129;49.662;8.448;2022-11-15T06:08:04;18.95;;;5.18;;
37237;SDS011;23129;49.662;8.448;2022-11-15T06:10:51;9.23;;;5.05;;
37237;SDS011;23129;49.662;8.448;2022-11-15T06:13:38;5.57;;;3.63;;
37237;SDS011;23129;49.662;8.448;2022-11-15T06:16:26;7.07;;;4.53;;
37237;SDS011;23129;49.662;8.448;2022-11-15T06:19:13;9.48;;;4.80;;
37237;SDS011;23129;49.662;8.448;2022-11-15T06:22:00;14.82;;;5.03;;
37237;SDS011;23129;49.662;8.448;2022-11-15T06:24:48;8.23;;;4.75;;
37237;SDS011;23129;49.662;8.448;2022-11-15T06:27:35;11.13;;;5.47;;
37237;SDS011;23129;49.662;8.448;2022-11-15T06:30:22;8.27;;;3.75;;
37237;SDS011;23129;49.662;8.448;2022-11-15T06:33:11;11.82;;;5.25;;
37237;SDS011;23129;49.662;8.448;2022-11-15T06:35:59;7.25;;;4.57;;
37237;SDS011;23129;49.662;8.448;2022-11-15T06:38:47;8.60;;;4.50;;
37237;SDS011;23129;49.662;8.448;2022-11-15T06:41:36;8.52;;;4.07;;
37237;SDS011;23129;49.662;8.448;2022-11-15T06:44:22;6.38;;;4.28;;
37237;SDS011;23129;49.662;8.448;2022-11-15T06:47:09;6.93;;;4.28;;
37237;SDS011;23129;49.662;8.448;2022-11-15T06:49:56;12.60;;;4.28;;
37237;SDS011;23129;49.662;8.448;2022-11-15T06:52:44;7.80;;;3.72;;
37237;SDS011;23129;49.662;8.448;2022-11-15T06:55:31;6.78;;;3.88;;
37237;SDS011;23129;49.662;8.448;2022-11-15T06:58:21;8.23;;;4.38;;
37237;SDS011;23129;49.662;8.448;2022-11-15T07:01:09;5.15;;;4.07;;
37237;SDS011;23129;49.662;8.448;2022-11-15T07:03:57;17.83;;;5.15;;
37237;SDS011;23129;49.662;8.448;2022-11-15T07:06:45;10.52;;;4.43;;
37237;SDS011;23129;49.662;8.448;2022-11-15T07:09:33;8.38;;;5.47;;
37237;SDS011;23129;49.662;8.448;2022-11-15T07:12:20;13.82;;;5.90;;
37237;SDS011;23129;49.662;8.448;2022-11-15T07:15:09;12.55;;;6.00;;
37237;SDS011;23129;49.662;8.448;2022-11-15T07:17:56;9.52;;;5.70;;
37237;SDS011;23129;49.662;8.448;2022-11-15T07:20:47;6.18;;;3.88;;
37237;SDS011;23129;49.662;8.448;2022-11-15T07:23:35;6.63;;;4.28;;
37237;SDS011;23129;49.662;8.448;2022-11-15T07:26:23;9.00;;;3.78;;
37237;SDS011;23129;49.662;8.448;2022-11-15T07:29:10;12.95;;;4.45;;
37237;SDS011;23129;49.662;8.448;2022-11-15T07:31:58;11.50;;;4.70;;
37237;SDS011;23129;49.662;8.448;2022-11-15T07:34:44;7.53;;;3.75;;
37237;SDS011;23129;49.662;8.448;2022-11-15T07:37:32;10.68;;;4.40;;
37237;SDS011;23129;49.662;8.448;2022-11-15T07:40:19;7.07;;;4.75;;
37237;SDS011;23129;49.662;8.448;2022-11-15T07:43:07;8.40;;;4.25;;
37237;SDS011;23129;49.662;8.448;2022-11-15T07:45:55;7.63;;;4.70;;
37237;SDS011;23129;49.662;8.448;2022-11-15T07:48:45;7.00;;;4.35;;
37237;SDS011;23129;49.662;8.448;2022-11-15T07:51:32;7.53;;;4.78;;
37237;SDS011;23129;49.662;8.448;2022-11-15T07:54:19;9.00;;;4.20;;
37237;SDS011;23129;49.662;8.448;2022-11-15T07:57:06;5.72;;;4.32;;
37237;SDS011;23129;49.662;8.448;2022-11-15T07:59:55;9.32;;;4.88;;
37237;SDS011;23129;49.662;8.448;2022-11-15T08:02:42;6.03;;;4.43;;
37237;SDS011;23129;49.662;8.448;2022-11-15T08:05:31;8.50;;;4.75;;
37237;SDS011;23129;49.662;8.448;2022-11-15T08:08:19;9.32;;;4.65;;
37237;SDS011;23129;49.662;8.448;2022-11-15T08:11:06;7.25;;;4.65;;
37237;SDS011;23129;49.662;8.448;2022-11-15T08:13:53;14.68;;;4.10;;
37237;SDS011;23129;49.662;8.448;2022-11-15T08:16:40;11.73;;;3.95;;
37237;SDS011;23129;49.662;8.448;2022-11-15T08:19:27;8.60;;;4.30;;
37237;SDS011;23129;49.662;8.448;2022-11-15T08:22:17;7.53;;;3.60;;
37237;SDS011;23129;49.662;8.448;2022-11-15T08:25:05;7.35;;;4.38;;
37237;SDS011;23129;49.662;8.448;2022-11-15T08:27:52;11.40;;;4.07;;
37237;SDS011;23129;49.662;8.448;2022-11-15T08:30:41;7.43;;;4.20;;
37237;SDS011;23129;49.662;8.448;2022-11-15T08:33:30;9.57;;;4.18;;
37237;SDS011;23129;49.662;8.448;2022-11-15T08:36:19;5.75;;;4.07;;
37237;SDS011;23129;49.662;8.448;2022-11-15T08:39:08;8.55;;;3.67;;
37237;SDS011;23129;49.662;8.448;2022-11-15T08:41:57;14.10;;;3.97;;
37237;SDS011;23129;49.662;8.448;2022-11-15T08:44:44;10.93;;;4.47;;
37237;SDS011;23129;49.662;8.448;2022-11-15T08:47:31;7.63;;;4.45;;
37237;SDS011;23129;49.662;8.448;2022-11-15T08:50:18;10.80;;;5.05;;
37237;SDS011;23129;49.662;8.448;2022-11-15T08:53:05;9.38;;;4.60;;
37237;SDS011;23129;49.662;8.448;2022-11-15T08:55:54;9.68;;;4.15;;
37237;SDS011;23129;49.662;8.448;2022-11-15T08:58:41;8.57;;;4.47;;
37237;SDS011;23129;49.662;8.448;2022-11-15T09:01:28;6.43;;;4.47;;
37237;SDS011;23129;49.662;8.448;2022-11-15T09:04:16;5.57;;;4.13;;
37237;SDS011;23129;49.662;8.448;2022-11-15T09:07:03;12.23;;;4.35;;
37237;SDS011;23129;49.662;8.448;2022-11-15T09:09:51;10.65;;;4.10;;
37237;SDS011;23129;49.662;8.448;2022-11-15T09:12:40;6.10;;;4.20;;
37237;SDS011;23129;49.662;8.448;2022-11-15T09:15:26;8.55;;;4.60;;
37237;SDS011;23129;49.662;8.448;2022-11-15T09:18:13;11.77;;;4.30;;
37237;SDS011;23129;49.662;8.448;2022-11-15T09:21:00;9.73;;;4.20;;
37237;SDS011;23129;49.662;8.448;2022-11-15T09:23:49;12.65;;;4.90;;
37237;SDS011;23129;49.662;8.448;2022-11-15T09:26:37;6.82;;;4.35;;
37237;SDS011;23129;49.662;8.448;2022-11-15T09:29:25;12.32;;;4.80;;
37237;SDS011;23129;49.662;8.448;2022-11-15T09:32:12;7.10;;;4.57;;
37237;SDS011;23129;49.662;8.448;2022-11-15T09:34:59;11.02;;;5.07;;
37237;SDS011;23129;49.662;8.448;2022-11-15T09:37:46;10.80;;;4.65;;
37237;SDS011;23129;49.662;8.448;2022-11-15T09:40:39;11.77;;;4.07;;
37237;SDS011;23129;49.662;8.448;2022-11-15T09:43:29;12.75;;;4.60;;
37237;SDS011;23129;49.662;8.448;2022-11-15T09:46:29;10.93;;;5.25;;
37237;SDS011;23129;49.662;8.448;2022-11-15T09:49:11;8.40;;;5.22;;
37237;SDS011;23129;49.662;8.448;2022-11-15T09:52:03;8.88;;;5.00;;
37237;SDS011;23129;49.662;8.448;2022-11-15T09:54:32;6.95;;;4.53;;
37237;SDS011;23129;49.662;8.448;2022-11-15T09:57:24;10.13;;;5.07;;
37237;SDS011;23129;49.662;8.448;2022-11-15T10:00:02;10.88;;;4.28;;
37237;SDS011;23129;49.662;8.448;2022-11-15T10:05:45;15.38;;;4.80;;
37237;SDS011;23129;49.662;8.448;2022-11-15T10:11:19;11.40;;;5.35;;
37237;SDS011;23129;49.662;8.448;2022-11-15T10:14:09;14.85;;;5.13;;
37237;SDS011;23129;49.662;8.448;2022-11-15T10:16:49;9.32;;;5.55;;
37237;SDS011;23129;49.662;8.448;2022-11-15T10:19:59;20.75;;;6.80;;
37237;SDS011;23129;49.662;8.448;2022-11-15T10:22:38;5.30;;;4.60;;
37237;SDS011;23129;49.662;8.448;2022-11-15T10:25:19;7.00;;;5.18;;
37237;SDS011;23129;49.662;8.448;2022-11-15T10:27:52;9.68;;;5.40;;
37237;SDS011;23129;49.662;8.448;2022-11-15T10:30:28;14.00;;;6.10;;
37237;SDS011;23129;49.662;8.448;2022-11-15T10:33:08;9.68;;;5.25;;
37237;SDS011;23129;49.662;8.448;2022-11-15T10:36:15;12.55;;;5.55;;
37237;SDS011;23129;49.662;8.448;2022-11-15T10:38:52;11.38;;;5.47;;
37237;SDS011;23129;49.662;8.448;2022-11-15T10:41:32;9.75;;;4.75;;
37237;SDS011;23129;49.662;8.448;2022-11-15T10:44:17;12.75;;;5.57;;
37237;SDS011;23129;49.662;8.448;2022-11-15T10:49:53;6.90;;;4.30;;
37237;SDS011;23129;49.662;8.448;2022-11-15T10:52:29;7.22;;;4.75;;
37237;SDS011;23129;49.662;8.448;2022-11-15T10:55:03;10.48;;;5.38;;
37237;SDS011;23129;49.662;8.448;2022-11-15T10:57:50;10.90;;;4.95;;
37237;SDS011;23129;49.662;8.448;2022-11-15T11:00:32;8.40;;;5.72;;
37237;SDS011;23129;49.662;8.448;2022-11-15T11:03:05;11.43;;;5.15;;
37237;SDS011;23129;49.662;8.448;2022-11-15T11:06:02;6.50;;;5.28;;
37237;SDS011;23129;49.662;8.448;2022-11-15T11:08:35;7.82;;;5.03;;
37237;SDS011;23129;49.662;8.448;2022-11-15T11:11:04;12.20;;;5.63;;
37237;SDS011;23129;49.662;8.448;2022-11-15T11:13:35;13.18;;;5.25;;
37237;SDS011;23129;49.662;8.448;2022-11-15T11:16:14;9.48;;;4.80;;
37237;SDS011;23129;49.662;8.448;2022-11-15T11:19:18;18.58;;;5.00;;
37237;SDS011;23129;49.662;8.448;2022-11-15T11:22:17;15.25;;;4.40;;
37237;SDS011;23129;49.662;8.448;2022-11-15T11:24:56;12.40;;;4.20;;
37237;SDS011;23129;49.662;8.448;2022-11-15T11:27:41;7.10;;;4.55;;
37237;SDS011;23129;49.662;8.448;2022-11-15T11:30:36;6.70;;;4.22;;
37237;SDS011;23129;49.662;8.448;2022-11-15T11:33:16;16.35;;;4.22;;
37237;SDS011;23129;49.662;8.448;2022-11-15T11:35:54;5.63;;;3.10;;
37237;SDS011;23129;49.662;8.448;2022-11-15T11:38:48;11.02;;;3.75;;
37237;SDS011;23129;49.662;8.448;2022-11-15T11:44:30;3.47;;;2.75;;
37237;SDS011;23129;49.662;8.448;2022-11-15T11:47:09;4.53;;;2.65;;
37237;SDS011;23129;49.662;8.448;2022-11-15T11:49:40;7.32;;;2.90;;
37237;SDS011;23129;49.662;8.448;2022-11-15T11:52:15;7.32;;;2.40;;
37237;SDS011;23129;49.662;8.448;2022-11-15T11:54:52;4.95;;;2.42;;
37237;SDS011;23129;49.662;8.448;2022-11-15T11:57:34;4.65;;;2.28;;
37237;SDS011;23129;49.662;8.448;2022-11-15T12:00:14;4.85;;;2.50;;
37237;SDS011;23129;49.662;8.448;2022-11-15T12:02:48;4.40;;;2.55;;
37237;SDS011;23129;49.662;8.448;2022-11-15T12:05:30;5.47;;;3.17;;
37237;SDS011;23129;49.662;8.448;2022-11-15T12:08:17;3.90;;;2.35;;
37237;SDS011;23129;49.662;8.448;2022-11-15T12:13:35;2.47;;;1.98;;
37237;SDS011;23129;49.662;8.448;2022-11-15T12:16:07;6.30;;;2.55;;
37237;SDS011;23129;49.662;8.448;2022-11-15T12:18:44;3.45;;;2.45;;
37237;SDS011;23129;49.662;8.448;2022-11-15T12:21:18;3.88;;;2.53;;
37237;SDS011;23129;49.662;8.448;2022-11-15T12:24:04;5.32;;;2.60;;
37237;SDS011;23129;49.662;8.448;2022-11-15T12:26:41;19.35;;;2.03;;
37237;SDS011;23129;49.662;8.448;2022-11-15T12:29:18;4.40;;;2.20;;
37237;SDS011;23129;49.662;8.448;2022-11-15T12:31:54;6.90;;;2.13;;
37237;SDS011;23129;49.662;8.448;2022-11-15T12:34:35;3.10;;;2.15;;
37237;SDS011;23129;49.662;8.448;2022-11-15T12:40:18;1.98;;;1.80;;
37237;SDS011;23129;49.662;8.448;2022-11-15T12:42:58;3.90;;;2.17;;
37237;SDS011;23129;49.662;8.448;2022-11-15T12:45:31;7.35;;;2.53;;
37237;SDS011;23129;49.662;8.448;2022-11-15T12:51:19;5.07;;;2.20;;
37237;SDS011;23129;49.662;8.448;2022-11-15T12:53:50;6.03;;;1.75;;
37237;SDS011;23129;49.662;8.448;2022-11-15T12:56:20;5.07;;;1.92;;
37237;SDS011;23129;49.662;8.448;2022-11-15T12:58:54;1.80;;;1.58;;
37237;SDS011;23129;49.662;8.448;2022-11-15T13:04:28;3.38;;;2.67;;
37237;SDS011;23129;49.662;8.448;2022-11-15T13:06:59;2.35;;;1.90;;
37237;SDS011;23129;49.662;8.448;2022-11-15T13:09:52;5.03;;;2.05;;
37237;SDS011;23129;49.662;8.448;2022-11-15T13:15:36;6.30;;;2.03;;
37237;SDS011;23129;49.662;8.448;2022-11-15T13:18:31;2.80;;;1.88;;
37237;SDS011;23129;49.662;8.448;2022-11-15T13:21:20;3.15;;;2.45;;
37237;SDS011;23129;49.662;8.448;2022-11-15T13:24:10;3.30;;;2.08;;
37237;SDS011;23129;49.662;8.448;2022-11-15T13:26:43;6.57;;;2.50;;
37237;SDS011;23129;49.662;8.448;2022-11-15T13:29:16;3.58;;;2.58;;
37237;SDS011;23129;49.662;8.448;2022-11-15T13:31:46;8.80;;;2.60;;
37237;SDS011;23129;49.662;8.448;2022-11-15T13:34:20;5.63;;;2.55;;
37237;SDS011;23129;49.662;8.448;2022-11-15T13:37:27;7.50;;;2.47;;
37237;SDS011;23129;49.662;8.448;2022-11-15T13:40:10;2.75;;;2.20;;
37237;SDS011;23129;49.662;8.448;2022-11-15T13:42:48;7.25;;;2.22;;
37237;SDS011;23129;49.662;8.448;2022-11-15T13:45:17;3.47;;;2.10;;
37237;SDS011;23129;49.662;8.448;2022-11-15T13:47:56;3.45;;;2.00;;
37237;SDS011;23129;49.662;8.448;2022-11-15T13:50:28;3.50;;;1.90;;
37237;SDS011;23129;49.662;8.448;2022-11-15T13:53:01;4.90;;;1.90;;
37237;SDS011;23129;49.662;8.448;2022-11-15T13:55:31;8.10;;;2.42;;
37237;SDS011;23129;49.662;8.448;2022-11-15T13:58:01;5.68;;;2.17;;
37237;SDS011;23129;49.662;8.448;2022-11-15T14:00:34;4.80;;;2.40;;
37237;SDS011;23129;49.662;8.448;2022-11-15T14:03:07;4.93;;;2.30;;
37237;SDS011;23129;49.662;8.448;2022-11-15T14:05:44;4.72;;;1.70;;
37237;SDS011;23129;49.662;8.448;2022-11-15T14:08:32;3.83;;;1.75;;
37237;SDS011;23129;49.662;8.448;2022-11-15T14:11:06;2.85;;;2.08;;
37237;SDS011;23129;49.662;8.448;2022-11-15T14:13:39;7.10;;;2.30;;
37237;SDS011;23129;49.662;8.448;2022-11-15T14:16:18;3.30;;;1.90;;
37237;SDS011;23129;49.662;8.448;2022-11-15T14:18:49;4.22;;;2.10;;
37237;SDS011;23129;49.662;8.448;2022-11-15T14:21:20;5.32;;;2.10;;
37237;SDS011;23129;49.662;8.448;2022-11-15T14:23:48;6.13;;;1.80;;
37237;SDS011;23129;49.662;8.448;2022-11-15T14:26:28;2.60;;;1.83;;
37237;SDS011;23129;49.662;8.448;2022-11-15T14:31:51;7.25;;;2.13;;
37237;SDS011;23129;49.662;8.448;2022-11-15T14:34:20;6.07;;;2.10;;
37237;SDS011;23129;49.662;8.448;2022-11-15T14:36:50;1.88;;;1.60;;
37237;SDS011;23129;49.662;8.448;2022-11-15T14:39:18;3.58;;;1.30;;
37237;SDS011;23129;49.662;8.448;2022-11-15T14:41:47;6.68;;;1.95;;
37237;SDS011;23129;49.662;8.448;2022-11-15T14:44:16;2.10;;;1.70;;
37237;SDS011;23129;49.662;8.448;2022-11-15T14:46:46;9.15;;;1.80;;
37237;SDS011;23129;49.662;8.448;2022-11-15T14:49:15;2.72;;;1.83;;
37237;SDS011;23129;49.662;8.448;2022-11-15T14:51:43;3.95;;;1.50;;
37237;SDS011;23129;49.662;8.448;2022-11-15T14:54:13;2.90;;;1.30;;
37237;SDS011;23129;49.662;8.448;2022-11-15T14:56:41;6.38;;;2.03;;
37237;SDS011;23129;49.662;8.448;2022-11-15T14:59:09;5.55;;;1.70;;
37237;SDS011;23129;49.662;8.448;2022-11-15T15:01:38;6.20;;;2.15;;
37237;SDS011;23129;49.662;8.448;2022-11-15T15:04:06;5.88;;;1.60;;
37237;SDS011;23129;49.662;8.448;2022-11-15T15:06:37;2.38;;;1.67;;
37237;SDS011;23129;49.662;8.448;2022-11-15T15:09:07;5.32;;;1.63;;
37237;SDS011;23129;49.662;8.448;2022-11-15T15:11:37;4.13;;;1.85;;
37237;SDS011;23129;49.662;8.448;2022-11-15T15:14:05;5.60;;;1.85;;
37237;SDS011;23129;49.662;8.448;2022-11-15T15:16:35;9.02;;;1.63;;
37237;SDS011;23129;49.662;8.448;2022-11-15T15:19:04;6.03;;;1.27;;
37237;SDS011;23129;49.662;8.448;2022-11-15T15:21:32;3.00;;;1.58;;
37237;SDS011;23129;49.662;8.448;2022-11-15T15:24:03;8.65;;;2.03;;
37237;SDS011;23129;49.662;8.448;2022-11-15T15:26:31;6.75;;;1.73;;
37237;SDS011;23129;49.662;8.448;2022-11-15T15:29:04;4.95;;;2.13;;
37237;SDS011;23129;49.662;8.448;2022-11-15T15:31:32;12.18;;;2.13;;
37237;SDS011;23129;49.662;8.448;2022-11-15T15:34:01;5.90;;;2.30;;
37237;SDS011;23129;49.662;8.448;2022-11-15T15:36:30;9.45;;;3.03;;
37237;SDS011;23129;49.662;8.448;2022-11-15T15:38:58;5.43;;;2.95;;
37237;SDS011;23129;49.662;8.448;2022-11-15T15:41:27;7.10;;;2.80;;
37237;SDS011;23129;49.662;8.448;2022-11-15T15:43:55;6.05;;;2.08;;
37237;SDS011;23129;49.662;8.448;2022-11-15T15:46:25;4.28;;;3.08;;
37237;SDS011;23129;49.662;8.448;2022-11-15T15:48:53;7.15;;;3.20;;
37237;SDS011;23129;49.662;8.448;2022-11-15T15:51:22;8.82;;;2.97;;
37237;SDS011;23129;49.662;8.448;2022-11-15T15:53:50;6.00;;;2.20;;
37237;SDS011;23129;49.662;8.448;2022-11-15T15:56:23;3.60;;;2.80;;
37237;SDS011;23129;49.662;8.448;2022-11-15T15:58:51;3.22;;;2.80;;
37237;SDS011;23129;49.662;8.448;2022-11-15T16:01:21;4.88;;;2.13;;
37237;SDS011;23129;49.662;8.448;2022-11-15T16:03:52;5.43;;;2.40;;
37237;SDS011;23129;49.662;8.448;2022-11-15T16:06:34;5.20;;;2.10;;
37237;SDS011;23129;49.662;8.448;2022-11-15T16:09:05;2.90;;;1.60;;
37237;SDS011;23129;49.662;8.448;2022-11-15T16:11:41;5.85;;;1.85;;
37237;SDS011;23129;49.662;8.448;2022-11-15T16:14:12;2.22;;;1.77;;
37237;SDS011;23129;49.662;8.448;2022-11-15T16:16:40;2.42;;;1.77;;
37237;SDS011;23129;49.662;8.448;2022-11-15T16:19:10;8.07;;;2.60;;
37237;SDS011;23129;49.662;8.448;2022-11-15T16:21:39;6.18;;;2.30;;
37237;SDS011;23129;49.662;8.448;2022-11-15T16:24:07;6.35;;;1.90;;
37237;SDS011;23129;49.662;8.448;2022-11-15T16:26:35;5.68;;;2.20;;
37237;SDS011;23129;49.662;8.448;2022-11-15T16:29:05;2.17;;;1.73;;
37237;SDS011;23129;49.662;8.448;2022-11-15T16:31:35;7.55;;;1.95;;
37237;SDS011;23129;49.662;8.448;2022-11-15T16:34:04;4.53;;;2.20;;
37237;SDS011;23129;49.662;8.448;2022-11-15T16:36:35;3.85;;;2.55;;
37237;SDS011;23129;49.662;8.448;2022-11-15T16:39:04;2.47;;;2.22;;
37237;SDS011;23129;49.662;8.448;2022-11-15T16:41:32;6.72;;;2.17;;
37237;SDS011;23129;49.662;8.448;2022-11-15T16:44:01;5.70;;;3.20;;
37237;SDS011;23129;49.662;8.448;2022-11-15T16:46:29;5.25;;;2.38;;
37237;SDS011;23129;49.662;8.448;2022-11-15T16:48:58;4.50;;;2.50;;
37237;SDS011;23129;49.662;8.448;2022-11-15T16:51:26;4.28;;;2.80;;
37237;SDS011;23129;49.662;8.448;2022-11-15T16:53:56;8.80;;;2.70;;
37237;SDS011;23129;49.662;8.448;2022-11-15T16:56:25;3.60;;;2.67;;
37237;SDS011;23129;49.662;8.448;2022-11-15T16:58:55;8.52;;;2.92;;